createdAt,value
2019-01-15T00:02:08.029Z,3.60
2019-01-15T00:04:48.949Z,3.90
2019-01-15T00:07:30.051Z,3.50
2019-01-15T00:10:11.189Z,3.40
2019-01-15T00:12:51.618Z,3.40
2019-01-15T00:15:32.871Z,3.50
2019-01-15T00:18:12.899Z,3.70
2019-01-15T00:20:52.633Z,3.40
2019-01-15T00:23:35.403Z,3.40
2019-01-15T00:26:16.794Z,3.30
2019-01-15T00:28:56.656Z,3.70
2019-01-15T00:31:37.696Z,3.30
2019-01-15T00:34:18.630Z,3.30
2019-01-15T00:36:59.758Z,3.10
2019-01-15T00:39:40.898Z,3.30
2019-01-15T00:42:15.211Z,3.00
2019-01-15T00:44:58.131Z,3.30
2019-01-15T00:47:38.998Z,3.50
2019-01-15T00:50:19.591Z,3.70
2019-01-15T00:52:59.110Z,3.30
2019-01-15T00:55:39.402Z,3.10
2019-01-15T00:58:19.407Z,3.40
2019-01-15T01:00:59.524Z,3.20
2019-01-15T01:03:40.003Z,3.20
2019-01-15T01:06:20.856Z,2.90
2019-01-15T01:09:01.960Z,3.10
2019-01-15T01:11:43.086Z,3.30
2019-01-15T01:14:24.414Z,3.00
2019-01-15T01:17:05.362Z,2.90
2019-01-15T01:19:46.403Z,3.00
2019-01-15T01:22:27.397Z,3.00
2019-01-15T01:25:07.563Z,3.00
2019-01-15T01:27:34.982Z,2.40
2019-01-15T01:30:22.121Z,3.00
2019-01-15T01:33:01.865Z,3.10
2019-01-15T01:35:41.967Z,2.80
2019-01-15T01:38:22.887Z,3.00
2019-01-15T01:40:51.757Z,3.10
2019-01-15T01:43:21.153Z,3.10
2019-01-15T01:46:02.962Z,3.20
2019-01-15T01:48:44.614Z,3.20
2019-01-15T01:51:25.412Z,3.30
2019-01-15T01:54:06.373Z,3.70
2019-01-15T01:56:47.615Z,3.30
2019-01-15T01:59:28.829Z,3.30
2019-01-15T02:02:08.967Z,3.40
2019-01-15T02:04:48.811Z,3.40
2019-01-15T02:07:28.685Z,3.30
2019-01-15T02:10:08.986Z,3.00
2019-01-15T02:12:48.431Z,3.50
2019-01-15T02:15:29.054Z,3.50
2019-01-15T02:18:10.006Z,3.30
2019-01-15T02:20:50.639Z,3.40
2019-01-15T02:23:31.702Z,3.30
2019-01-15T02:26:13.045Z,3.50
2019-01-15T02:28:53.610Z,3.20
2019-01-15T02:31:34.746Z,3.00
2019-01-15T02:34:22.431Z,3.20
2019-01-15T02:37:02.625Z,3.20
2019-01-15T02:39:42.853Z,3.20
2019-01-15T02:42:22.906Z,3.30
2019-01-15T02:45:04.340Z,3.40
2019-01-15T02:47:45.391Z,3.40
2019-01-15T02:50:26.808Z,3.10
2019-01-15T02:53:07.691Z,3.30
2019-01-15T02:55:48.298Z,3.40
2019-01-15T02:58:29.346Z,3.60
2019-01-15T03:01:10.747Z,3.50
2019-01-15T03:03:50.888Z,3.50
2019-01-15T03:06:31.242Z,3.40
2019-01-15T03:09:11.198Z,3.90
2019-01-15T03:11:51.098Z,3.60
2019-01-15T03:14:31.036Z,3.50
2019-01-15T03:17:11.667Z,3.30
2019-01-15T03:19:52.614Z,3.60
2019-01-15T03:22:33.758Z,3.50
2019-01-15T03:25:14.703Z,3.40
2019-01-15T03:27:55.650Z,3.60
2019-01-15T03:30:36.867Z,3.50
2019-01-15T03:33:04.680Z,3.60
2019-01-15T03:35:49.124Z,3.60
2019-01-15T03:38:29.151Z,3.40
2019-01-15T03:41:09.127Z,4.10
2019-01-15T03:43:38.797Z,3.40
2019-01-15T03:46:26.202Z,3.60
2019-01-15T03:49:05.930Z,3.50
2019-01-15T03:51:47.050Z,3.70
2019-01-15T03:54:27.999Z,4.00
2019-01-15T03:57:09.119Z,3.80
2019-01-15T03:59:50.121Z,3.70
2019-01-15T04:02:31.364Z,4.10
2019-01-15T04:05:12.670Z,3.90
2019-01-15T04:07:55.660Z,3.90
2019-01-15T04:10:35.387Z,3.90
2019-01-15T04:13:17.348Z,4.00
2019-01-15T04:15:57.410Z,4.00
2019-01-15T04:18:37.431Z,3.90
2019-01-15T04:21:17.419Z,4.00
2019-01-15T04:23:58.246Z,3.80
2019-01-15T04:26:28.572Z,4.00
2019-01-15T04:29:17.150Z,4.10
2019-01-15T04:31:59.363Z,4.10
2019-01-15T04:34:40.487Z,4.40
2019-01-15T04:37:23.374Z,4.10
2019-01-15T04:39:52.427Z,4.20
2019-01-15T04:42:32.679Z,4.10
2019-01-15T04:47:52.983Z,3.80
2019-01-15T04:50:33.185Z,4.20
2019-01-15T04:53:12.966Z,4.00
2019-01-15T04:55:54.158Z,3.80
2019-01-15T04:58:35.579Z,4.10
2019-01-15T05:01:15.959Z,3.90
2019-01-15T05:03:44.126Z,3.90
2019-01-15T05:06:32.687Z,4.10
2019-01-15T05:09:13.701Z,4.10
2019-01-15T05:11:54.208Z,4.10
2019-01-15T05:14:34.382Z,4.20
2019-01-15T05:17:14.551Z,4.30
2019-01-15T05:19:54.610Z,4.30
2019-01-15T05:22:34.452Z,4.30
2019-01-15T05:25:14.510Z,4.30
2019-01-15T05:27:55.570Z,4.30
2019-01-15T05:30:36.487Z,4.30
2019-01-15T05:33:21.545Z,4.50
2019-01-15T05:36:02.722Z,4.20
2019-01-15T05:38:43.662Z,4.80
2019-01-15T05:41:24.801Z,4.60
2019-01-15T05:43:52.845Z,4.30
2019-01-15T05:46:41.657Z,4.40
2019-01-15T05:49:21.778Z,4.50
2019-01-15T05:52:01.998Z,4.50
2019-01-15T05:54:41.988Z,4.50
2019-01-15T05:57:21.951Z,4.50
2019-01-15T06:00:01.877Z,4.60
2019-01-15T06:02:30.329Z,5.00
2019-01-15T06:05:18.903Z,4.60
2019-01-15T06:08:00.752Z,4.60
2019-01-15T06:10:41.794Z,4.60
2019-01-15T06:13:22.759Z,4.80
2019-01-15T06:16:03.694Z,4.30
2019-01-15T06:18:44.817Z,4.50
2019-01-15T06:21:24.826Z,4.70
2019-01-15T06:24:04.883Z,4.80
2019-01-15T06:26:44.910Z,4.80
2019-01-15T06:29:25.557Z,5.30
2019-01-15T06:32:05.662Z,5.10
2019-01-15T06:34:46.007Z,5.10
2019-01-15T06:37:27.116Z,4.60
2019-01-15T06:40:08.688Z,4.70
2019-01-15T06:42:49.346Z,4.70
2019-01-15T06:45:33.434Z,4.80
2019-01-15T06:48:14.666Z,4.90
2019-01-15T06:50:55.632Z,4.60
2019-01-15T06:53:35.968Z,4.50
2019-01-15T06:56:15.725Z,4.90
2019-01-15T06:58:55.946Z,4.80
2019-01-15T07:01:35.786Z,4.90
2019-01-15T07:04:18.150Z,4.90
2019-01-15T07:06:58.934Z,4.50
2019-01-15T07:09:41.791Z,5.10
2019-01-15T07:12:23.487Z,5.00
2019-01-15T07:14:52.319Z,5.10
2019-01-15T07:17:41.213Z,5.10
2019-01-15T07:20:22.985Z,5.10
2019-01-15T07:23:03.801Z,5.20
2019-01-15T07:25:44.122Z,5.80
2019-01-15T07:28:23.921Z,5.20
2019-01-15T07:31:03.753Z,4.90
2019-01-15T07:33:48.129Z,5.50
2019-01-15T07:36:32.786Z,5.20
2019-01-15T07:39:14.364Z,5.30
2019-01-15T07:41:55.162Z,5.30
2019-01-15T07:44:35.695Z,5.30
2019-01-15T07:47:17.086Z,5.50
2019-01-15T07:49:58.077Z,4.90
2019-01-15T07:52:47.790Z,5.40
2019-01-15T07:55:34.451Z,5.90
2019-01-15T07:58:14.366Z,5.30
2019-01-15T08:00:54.490Z,5.40
2019-01-15T08:03:34.687Z,5.10
2019-01-15T08:06:14.584Z,5.50
2019-01-15T08:08:55.399Z,5.50
2019-01-15T08:11:36.613Z,5.50
2019-01-15T08:14:17.433Z,5.50
2019-01-15T08:16:58.831Z,5.50
2019-01-15T08:19:39.973Z,5.50
2019-01-15T08:22:20.766Z,5.50
2019-01-15T08:25:01.160Z,5.60
2019-01-15T08:27:28.598Z,5.70
2019-01-15T08:30:16.793Z,5.80
2019-01-15T08:32:56.986Z,5.80
2019-01-15T08:35:37.186Z,6.00
2019-01-15T08:38:17.281Z,5.80
2019-01-15T08:40:58.250Z,5.80
2019-01-15T08:43:41.539Z,5.90
2019-01-15T08:46:22.183Z,6.00
2019-01-15T08:48:55.426Z,5.90
2019-01-15T08:54:46.306Z,6.10
2019-01-15T08:57:25.686Z,5.90
2019-01-15T09:00:05.578Z,5.90
2019-01-15T09:02:45.727Z,6.10
2019-01-15T09:05:25.907Z,5.80
2019-01-15T09:08:06.768Z,5.80
2019-01-15T09:10:47.860Z,5.70
2019-01-15T09:13:28.992Z,5.90
2019-01-15T09:16:01.685Z,6.10
2019-01-15T09:18:50.383Z,6.10
2019-01-15T09:21:21.278Z,6.00
2019-01-15T09:24:29.138Z,6.10
2019-01-15T09:27:14.086Z,5.80
2019-01-15T09:29:53.667Z,6.40
2019-01-15T09:32:34.014Z,6.60
2019-01-15T09:35:14.560Z,6.30
2019-01-15T09:37:55.950Z,6.20
2019-01-15T09:40:36.841Z,6.20
2019-01-15T09:43:17.961Z,5.90
2019-01-15T09:45:59.079Z,6.20
2019-01-15T09:48:40.431Z,6.30
2019-01-15T09:51:20.426Z,6.30
2019-01-15T09:54:00.664Z,6.30
2019-01-15T09:56:40.564Z,6.30
2019-01-15T09:59:20.673Z,6.50
2019-01-15T10:02:00.735Z,6.60
2019-01-15T10:04:40.563Z,6.50
2019-01-15T10:07:08.562Z,6.70
2019-01-15T10:09:57.175Z,6.60
2019-01-15T10:12:38.688Z,7.00
2019-01-15T10:15:19.670Z,6.70
2019-01-15T10:18:00.874Z,6.70
2019-01-15T10:20:41.892Z,6.70
2019-01-15T10:23:23.033Z,6.80
2019-01-15T10:26:03.237Z,6.60
2019-01-15T10:28:43.670Z,6.40
2019-01-15T10:31:23.486Z,7.00
2019-01-15T10:34:03.386Z,7.10
2019-01-15T10:36:33.774Z,7.00
2019-01-15T10:39:20.357Z,7.00
2019-01-15T10:42:00.583Z,6.80
2019-01-15T10:44:40.394Z,7.40
2019-01-15T10:47:21.509Z,7.00
2019-01-15T10:50:02.544Z,7.20
2019-01-15T10:52:32.471Z,7.00
2019-01-15T10:55:21.712Z,7.00
2019-01-15T10:58:06.046Z,6.90
2019-01-15T11:00:50.277Z,7.00
2019-01-15T11:03:31.291Z,7.00
2019-01-15T11:06:11.936Z,7.00
2019-01-15T11:08:51.990Z,7.10
2019-01-15T11:11:32.526Z,7.50
2019-01-15T11:14:16.184Z,7.10
2019-01-15T11:16:56.343Z,7.10
2019-01-15T11:19:37.601Z,7.10
2019-01-15T11:22:18.499Z,7.20
2019-01-15T11:25:00.174Z,7.00
2019-01-15T11:27:42.196Z,6.90
2019-01-15T11:30:22.935Z,7.30
2019-01-15T11:32:53.481Z,7.20
2019-01-15T11:35:35.060Z,7.20
2019-01-15T11:38:02.514Z,6.80
2019-01-15T11:40:53.095Z,7.40
2019-01-15T11:43:32.815Z,7.40
2019-01-15T11:46:13.046Z,7.10
2019-01-15T11:48:53.019Z,7.50
2019-01-15T11:51:33.870Z,7.60
2019-01-15T11:54:14.602Z,7.90
2019-01-15T11:56:56.194Z,8.10
2019-01-15T11:59:37.207Z,7.60
2019-01-15T12:02:37.578Z,8.10
2019-01-15T12:05:40.009Z,7.90
2019-01-15T12:08:36.233Z,8.10
2019-01-15T12:11:40.458Z,7.70
2019-01-15T12:14:34.854Z,7.70
2019-01-15T12:17:35.335Z,7.80
2019-01-15T12:20:37.697Z,7.80
2019-01-15T12:23:38.409Z,7.70
2019-01-15T12:26:38.230Z,7.80
2019-01-15T12:32:44.077Z,7.80
2019-01-15T12:35:47.549Z,7.60
2019-01-15T12:38:49.205Z,7.90
2019-01-15T12:41:52.541Z,7.60
2019-01-15T12:44:53.906Z,7.90
2019-01-15T12:47:54.769Z,7.70
2019-01-15T12:54:01.187Z,7.70
2019-01-15T12:57:01.192Z,8.00
2019-01-15T12:59:58.080Z,7.30
2019-01-15T13:02:58.107Z,7.90
2019-01-15T13:05:53.441Z,7.60
2019-01-15T13:08:41.833Z,7.70
2019-01-15T13:11:33.201Z,7.40
2019-01-15T13:14:41.666Z,7.60
2019-01-15T13:17:41.497Z,7.50
2019-01-15T13:20:42.545Z,7.60
2019-01-15T13:23:49.880Z,7.60
2019-01-15T13:29:45.810Z,7.70
2019-01-15T13:35:31.611Z,7.60
2019-01-15T13:38:32.408Z,7.70
2019-01-15T13:41:32.511Z,7.60
2019-01-15T13:44:35.302Z,7.80
2019-01-15T13:47:24.016Z,7.90
2019-01-15T13:50:15.288Z,7.60
2019-01-15T13:53:24.654Z,7.70
2019-01-15T13:56:25.745Z,7.70
2019-01-15T13:59:25.908Z,7.70
2019-01-15T14:02:17.350Z,7.70
2019-01-15T14:08:50.927Z,7.70
2019-01-15T14:11:51.235Z,7.70
2019-01-15T14:15:02.460Z,7.70
2019-01-15T14:18:21.966Z,7.70
2019-01-15T14:21:12.435Z,7.70
2019-01-15T14:24:27.738Z,7.70
2019-01-15T14:27:32.206Z,7.50
2019-01-15T14:30:34.201Z,7.30
2019-01-15T14:33:15.737Z,7.40
2019-01-15T14:36:03.860Z,7.40
2019-01-15T14:39:12.230Z,7.80
2019-01-15T14:42:12.276Z,7.50
2019-01-15T14:45:11.252Z,7.00
2019-01-15T14:48:10.259Z,7.20
2019-01-15T14:51:14.195Z,7.20
2019-01-15T14:54:14.629Z,6.90
2019-01-15T14:57:17.461Z,7.00
2019-01-15T15:00:18.111Z,7.10
2019-01-15T15:03:18.464Z,7.20
2019-01-15T15:06:13.874Z,7.00
2019-01-15T15:09:15.724Z,6.90
2019-01-15T15:12:05.364Z,7.00
2019-01-15T15:14:54.070Z,7.10
2019-01-15T15:17:53.188Z,7.30
2019-01-15T15:20:55.398Z,7.10
2019-01-15T15:23:57.413Z,7.40
2019-01-15T15:26:38.180Z,7.40
2019-01-15T15:29:34.118Z,7.20
2019-01-15T15:32:16.095Z,7.00
2019-01-15T15:34:57.154Z,7.20
2019-01-15T15:37:45.374Z,6.90
2019-01-15T15:40:35.534Z,7.20
2019-01-15T15:43:46.888Z,7.20
2019-01-15T15:46:46.273Z,6.90
2019-01-15T15:49:51.535Z,7.40
2019-01-15T15:52:51.678Z,7.20
2019-01-15T15:55:50.914Z,7.00
2019-01-15T15:58:39.694Z,7.70
2019-01-15T16:01:50.036Z,7.20
2019-01-15T16:08:03.576Z,6.90
2019-01-15T16:11:11.182Z,7.20
2019-01-15T16:14:12.145Z,7.20
2019-01-15T16:17:07.154Z,7.20
2019-01-15T16:19:56.022Z,7.30
2019-01-15T16:23:03.754Z,7.40
2019-01-15T16:26:03.813Z,7.20
2019-01-15T16:28:56.786Z,7.40
2019-01-15T16:34:40.362Z,7.40
2019-01-15T16:37:40.281Z,7.10
2019-01-15T16:40:39.529Z,7.50
2019-01-15T16:46:37.441Z,7.30
2019-01-15T16:49:39.630Z,7.40
2019-01-15T16:52:17.441Z,7.40
2019-01-15T16:55:23.845Z,7.40
2019-01-15T16:58:23.320Z,7.40
2019-01-15T17:01:22.343Z,7.20
2019-01-15T17:04:24.011Z,7.50
2019-01-15T17:07:24.984Z,7.50
2019-01-15T17:10:25.374Z,7.30
2019-01-15T17:13:26.359Z,7.50
2019-01-15T17:16:14.330Z,7.20
2019-01-15T17:19:21.922Z,7.50
2019-01-15T17:22:12.933Z,7.30
2019-01-15T17:25:17.882Z,7.50
2019-01-15T17:27:54.193Z,7.40
2019-01-15T17:31:00.112Z,7.40
2019-01-15T17:33:49.442Z,7.40
2019-01-15T17:36:38.570Z,7.40
2019-01-15T17:39:42.402Z,7.40
2019-01-15T17:42:27.438Z,7.60
2019-01-15T17:45:20.011Z,7.50
2019-01-15T17:48:01.639Z,7.50
2019-01-15T17:51:04.379Z,7.50
2019-01-15T17:53:49.545Z,7.50
2019-01-15T17:56:34.838Z,7.50
2019-01-15T17:59:39.301Z,7.50
2019-01-15T18:02:26.401Z,7.60
2019-01-15T18:05:11.695Z,7.50
2019-01-15T18:07:53.760Z,7.50
2019-01-15T18:10:40.639Z,7.50
2019-01-15T18:13:37.053Z,7.60
2019-01-15T18:16:26.684Z,7.50
2019-01-15T18:19:03.793Z,7.50
2019-01-15T18:22:09.593Z,7.60
2019-01-15T18:24:53.534Z,7.60
2019-01-15T18:27:58.117Z,7.50
2019-01-15T18:30:43.458Z,7.60
2019-01-15T18:33:30.201Z,7.70
2019-01-15T18:36:26.066Z,7.60
2019-01-15T18:39:21.833Z,7.60
2019-01-15T18:42:03.724Z,7.90
2019-01-15T18:44:48.736Z,7.60
2019-01-15T18:47:39.106Z,7.60
2019-01-15T18:50:36.474Z,7.60
2019-01-15T18:53:12.305Z,8.00
2019-01-15T18:55:59.608Z,7.60
2019-01-15T18:58:52.941Z,7.60
2019-01-15T19:01:38.000Z,7.60
2019-01-15T19:04:19.042Z,7.60
2019-01-15T19:06:57.898Z,7.50
2019-01-15T19:09:40.785Z,7.60
2019-01-15T19:12:31.526Z,7.60
2019-01-15T19:15:21.971Z,7.70
2019-01-15T19:18:07.946Z,7.80
2019-01-15T19:20:57.699Z,7.70
2019-01-15T19:23:46.975Z,7.70
2019-01-15T19:26:33.166Z,7.60
2019-01-15T19:29:27.054Z,7.70
2019-01-15T19:32:26.327Z,7.60
2019-01-15T19:35:29.137Z,7.60
2019-01-15T19:38:28.539Z,7.60
2019-01-15T19:41:21.272Z,7.70
2019-01-15T19:44:03.936Z,7.70
2019-01-15T19:46:54.811Z,7.60
2019-01-15T19:49:40.824Z,7.50
2019-01-15T19:52:19.846Z,7.60
2019-01-15T19:55:09.227Z,7.60
2019-01-15T19:57:45.730Z,7.70
2019-01-15T20:00:30.400Z,7.70
2019-01-15T20:03:16.549Z,7.60
2019-01-15T20:06:02.477Z,7.60
2019-01-15T20:08:56.782Z,7.60
2019-01-15T20:11:59.310Z,7.60
2019-01-15T20:14:59.031Z,7.70
2019-01-15T20:17:39.678Z,7.70
2019-01-15T20:20:24.718Z,7.60
2019-01-15T20:23:26.049Z,7.60
2019-01-15T20:26:11.193Z,7.70
2019-01-15T20:28:52.062Z,7.70
2019-01-15T20:31:41.898Z,7.70
2019-01-15T20:34:22.243Z,7.60
2019-01-15T20:37:18.546Z,7.70
2019-01-15T20:40:01.269Z,7.60
2019-01-15T20:43:03.068Z,7.60
2019-01-15T20:45:48.151Z,7.60
2019-01-15T20:48:24.597Z,7.70
2019-01-15T20:51:10.660Z,7.60
2019-01-15T20:54:06.615Z,7.70
2019-01-15T20:56:52.893Z,7.70
2019-01-15T20:59:40.403Z,7.70
2019-01-15T21:02:34.136Z,7.60
2019-01-15T21:05:20.710Z,7.80
2019-01-15T21:08:10.118Z,7.70
2019-01-15T21:10:50.646Z,7.70
2019-01-15T21:13:41.283Z,7.70
2019-01-15T21:16:27.589Z,7.70
2019-01-15T21:19:16.377Z,7.70
2019-01-15T21:22:02.532Z,7.60
2019-01-15T21:24:58.675Z,7.60
2019-01-15T21:27:45.257Z,7.40
2019-01-15T21:30:20.948Z,7.50
2019-01-15T21:33:19.465Z,7.50
2019-01-15T21:36:17.785Z,7.80
2019-01-15T21:39:13.058Z,7.40
2019-01-15T21:41:49.570Z,7.50
2019-01-15T21:44:49.612Z,7.50
2019-01-15T21:47:42.006Z,7.60
2019-01-15T21:50:29.162Z,7.70
2019-01-15T21:53:07.650Z,7.70
2019-01-15T21:55:50.916Z,7.60
2019-01-15T21:58:43.422Z,7.60
2019-01-15T22:01:29.011Z,7.60
2019-01-15T22:04:15.194Z,7.70
2019-01-15T22:07:04.638Z,7.70
2019-01-15T22:10:00.616Z,7.70
2019-01-15T22:12:56.333Z,7.70
2019-01-15T22:15:48.448Z,7.80
2019-01-15T22:18:28.986Z,7.70
2019-01-15T22:21:08.542Z,7.70
2019-01-15T22:24:01.411Z,7.70
2019-01-15T22:26:46.622Z,7.60
2019-01-15T22:29:35.983Z,7.70
2019-01-15T22:32:25.022Z,7.70
2019-01-15T22:35:17.532Z,7.70
2019-01-15T22:38:14.929Z,7.70
2019-01-15T22:41:00.216Z,7.70
2019-01-15T22:43:45.288Z,7.60
2019-01-15T22:46:49.843Z,7.70
2019-01-15T22:49:31.147Z,7.70
2019-01-15T22:52:21.453Z,7.70
2019-01-15T22:55:20.241Z,7.70
2019-01-15T22:57:55.918Z,7.70
2019-01-15T23:00:57.466Z,7.70
2019-01-15T23:03:47.506Z,7.70
2019-01-15T23:06:33.075Z,7.60
2019-01-15T23:09:18.917Z,7.80
2019-01-15T23:12:24.114Z,7.60
2019-01-15T23:14:57.250Z,7.70
2019-01-15T23:17:44.105Z,7.70
2019-01-15T23:20:34.862Z,7.70
2019-01-15T23:23:40.106Z,7.70
2019-01-15T23:26:33.599Z,7.70
2019-01-15T23:29:42.853Z,7.60
2019-01-15T23:32:34.021Z,7.70
2019-01-15T23:35:40.744Z,7.60
2019-01-15T23:38:27.000Z,7.60
2019-01-15T23:41:18.121Z,7.80
2019-01-15T23:44:06.224Z,7.70
2019-01-15T23:46:43.187Z,7.70
2019-01-15T23:49:40.206Z,7.70
2019-01-15T23:52:27.297Z,7.70
2019-01-15T23:55:15.026Z,7.70
2019-01-15T23:58:11.135Z,7.70
